sensor_id;sensor_type;location;lat;lon;timestamp;temperature;humidity
33255;DHT22;19623;52.482;9.762;2022-08-23T00:02:04;20.40;99.90
33255;DHT22;19623;52.482;9.762;2022-08-23T00:04:40;20.40;99.90
33255;DHT22;19623;52.482;9.762;2022-08-23T00:07:09;20.40;99.90
33255;DHT22;19623;52.482;9.762;2022-08-23T00:09:35;20.40;99.90
33255;DHT22;19623;52.482;9.762;2022-08-23T00:12:16;20.30;99.90
33255;DHT22;19623;52.482;9.762;2022-08-23T00:14:46;20.30;99.90
33255;DHT22;19623;52.482;9.762;2022-08-23T00:17:13;20.30;99.90
33255;DHT22;19623;52.482;9.762;2022-08-23T00:19:40;20.20;99.90
33255;DHT22;19623;52.482;9.762;2022-08-23T00:22:06;20.20;99.90
33255;DHT22;19623;52.482;9.762;2022-08-23T00:24:32;20.20;99.90
33255;DHT22;19623;52.482;9.762;2022-08-23T00:27:13;20.20;99.90
33255;DHT22;19623;52.482;9.762;2022-08-23T00:29:48;20.10;99.90
33255;DHT22;19623;52.482;9.762;2022-08-23T00:32:21;20.10;99.90
33255;DHT22;19623;52.482;9.762;2022-08-23T00:34:47;20.10;99.90
33255;DHT22;19623;52.482;9.762;2022-08-23T00:37:15;20.00;99.90
33255;DHT22;19623;52.482;9.762;2022-08-23T00:39:41;20.10;99.90
33255;DHT22;19623;52.482;9.762;2022-08-23T00:48:49;19.90;99.90
33255;DHT22;19623;52.482;9.762;2022-08-23T00:51:39;19.90;99.90
33255;DHT22;19623;52.482;9.762;2022-08-23T00:54:08;19.90;99.90
33255;DHT22;19623;52.482;9.762;2022-08-23T00:56:35;19.90;99.90
33255;DHT22;19623;52.482;9.762;2022-08-23T00:59:04;19.90;99.90
33255;DHT22;19623;52.482;9.762;2022-08-23T01:01:30;19.90;99.90
33255;DHT22;19623;52.482;9.762;2022-08-23T01:03:57;19.80;99.90
33255;DHT22;19623;52.482;9.762;2022-08-23T01:06:31;19.80;99.90
33255;DHT22;19623;52.482;9.762;2022-08-23T01:09:02;19.80;99.90
33255;DHT22;19623;52.482;9.762;2022-08-23T01:11:36;19.80;99.90
33255;DHT22;19623;52.482;9.762;2022-08-23T01:14:06;19.80;99.90
33255;DHT22;19623;52.482;9.762;2022-08-23T01:16:56;19.80;99.90
33255;DHT22;19623;52.482;9.762;2022-08-23T01:19:48;19.80;99.90
33255;DHT22;19623;52.482;9.762;2022-08-23T01:22:27;19.70;99.90
33255;DHT22;19623;52.482;9.762;2022-08-23T01:24:54;19.60;99.90
33255;DHT22;19623;52.482;9.762;2022-08-23T01:27:20;19.60;99.90
33255;DHT22;19623;52.482;9.762;2022-08-23T01:29:46;19.60;99.90
33255;DHT22;19623;52.482;9.762;2022-08-23T01:32:12;19.60;99.90
33255;DHT22;19623;52.482;9.762;2022-08-23T01:34:38;19.70;99.90
33255;DHT22;19623;52.482;9.762;2022-08-23T01:37:05;19.70;99.90
33255;DHT22;19623;52.482;9.762;2022-08-23T01:39:33;19.70;99.90
33255;DHT22;19623;52.482;9.762;2022-08-23T01:41:59;19.70;99.90
33255;DHT22;19623;52.482;9.762;2022-08-23T01:44:24;19.70;99.90
33255;DHT22;19623;52.482;9.762;2022-08-23T01:46:51;19.70;99.90
33255;DHT22;19623;52.482;9.762;2022-08-23T01:49:18;19.60;99.90
33255;DHT22;19623;52.482;9.762;2022-08-23T01:51:44;19.60;99.90
33255;DHT22;19623;52.482;9.762;2022-08-23T01:54:09;19.60;99.90
33255;DHT22;19623;52.482;9.762;2022-08-23T01:56:36;19.60;99.90
33255;DHT22;19623;52.482;9.762;2022-08-23T01:59:02;19.50;99.90
33255;DHT22;19623;52.482;9.762;2022-08-23T02:01:28;19.50;99.90
33255;DHT22;19623;52.482;9.762;2022-08-23T02:03:53;19.60;99.90
33255;DHT22;19623;52.482;9.762;2022-08-23T02:06:19;19.60;99.90
33255;DHT22;19623;52.482;9.762;2022-08-23T02:08:45;19.50;99.90
33255;DHT22;19623;52.482;9.762;2022-08-23T02:11:28;19.50;99.90
33255;DHT22;19623;52.482;9.762;2022-08-23T02:13:57;19.40;99.90
33255;DHT22;19623;52.482;9.762;2022-08-23T02:16:29;19.40;99.90
33255;DHT22;19623;52.482;9.762;2022-08-23T02:18:55;19.40;99.90
33255;DHT22;19623;52.482;9.762;2022-08-23T02:21:22;19.30;99.90
33255;DHT22;19623;52.482;9.762;2022-08-23T02:23:48;19.30;99.90
33255;DHT22;19623;52.482;9.762;2022-08-23T02:26:14;19.30;99.90
33255;DHT22;19623;52.482;9.762;2022-08-23T02:28:40;19.30;99.90
33255;DHT22;19623;52.482;9.762;2022-08-23T02:31:06;19.20;99.90
33255;DHT22;19623;52.482;9.762;2022-08-23T02:33:32;19.20;99.90
33255;DHT22;19623;52.482;9.762;2022-08-23T02:35:57;19.20;99.90
33255;DHT22;19623;52.482;9.762;2022-08-23T02:38:23;19.20;99.90
33255;DHT22;19623;52.482;9.762;2022-08-23T02:40:49;19.10;99.90
33255;DHT22;19623;52.482;9.762;2022-08-23T02:43:15;19.00;99.90
33255;DHT22;19623;52.482;9.762;2022-08-23T02:45:40;18.90;99.90
33255;DHT22;19623;52.482;9.762;2022-08-23T02:48:07;18.80;99.90
33255;DHT22;19623;52.482;9.762;2022-08-23T02:50:34;18.60;99.90
33255;DHT22;19623;52.482;9.762;2022-08-23T02:53:00;18.50;99.90
33255;DHT22;19623;52.482;9.762;2022-08-23T02:55:26;18.30;99.90
33255;DHT22;19623;52.482;9.762;2022-08-23T02:57:52;18.30;99.90
33255;DHT22;19623;52.482;9.762;2022-08-23T03:00:18;18.20;99.90
33255;DHT22;19623;52.482;9.762;2022-08-23T03:02:45;18.10;99.90
33255;DHT22;19623;52.482;9.762;2022-08-23T03:05:11;18.00;99.90
33255;DHT22;19623;52.482;9.762;2022-08-23T03:07:37;18.00;99.90
33255;DHT22;19623;52.482;9.762;2022-08-23T03:10:04;18.00;99.90
33255;DHT22;19623;52.482;9.762;2022-08-23T03:12:31;17.90;99.90
33255;DHT22;19623;52.482;9.762;2022-08-23T03:14:57;17.80;99.90
33255;DHT22;19623;52.482;9.762;2022-08-23T03:17:22;17.70;99.90
33255;DHT22;19623;52.482;9.762;2022-08-23T03:19:49;17.70;99.90
33255;DHT22;19623;52.482;9.762;2022-08-23T03:22:16;17.60;99.90
33255;DHT22;19623;52.482;9.762;2022-08-23T03:24:43;17.70;99.90
33255;DHT22;19623;52.482;9.762;2022-08-23T03:27:09;17.70;99.90
33255;DHT22;19623;52.482;9.762;2022-08-23T03:29:35;17.70;99.90
33255;DHT22;19623;52.482;9.762;2022-08-23T03:32:02;17.70;99.90
33255;DHT22;19623;52.482;9.762;2022-08-23T03:34:28;17.70;99.90
33255;DHT22;19623;52.482;9.762;2022-08-23T03:36:53;17.80;99.90
33255;DHT22;19623;52.482;9.762;2022-08-23T03:39:20;17.80;99.90
33255;DHT22;19623;52.482;9.762;2022-08-23T03:41:46;17.80;99.90
33255;DHT22;19623;52.482;9.762;2022-08-23T03:44:11;17.70;99.90
33255;DHT22;19623;52.482;9.762;2022-08-23T03:46:37;17.70;99.90
33255;DHT22;19623;52.482;9.762;2022-08-23T03:49:04;17.60;99.90
33255;DHT22;19623;52.482;9.762;2022-08-23T03:51:30;17.60;99.90
33255;DHT22;19623;52.482;9.762;2022-08-23T03:53:56;17.70;99.90
33255;DHT22;19623;52.482;9.762;2022-08-23T03:56:31;17.80;99.90
33255;DHT22;19623;52.482;9.762;2022-08-23T03:58:59;17.80;99.90
33255;DHT22;19623;52.482;9.762;2022-08-23T04:01:25;17.90;99.90
33255;DHT22;19623;52.482;9.762;2022-08-23T04:03:50;17.80;99.90
33255;DHT22;19623;52.482;9.762;2022-08-23T04:06:17;17.80;99.90
33255;DHT22;19623;52.482;9.762;2022-08-23T04:08:44;17.80;99.90
33255;DHT22;19623;52.482;9.762;2022-08-23T04:11:11;17.80;99.90
33255;DHT22;19623;52.482;9.762;2022-08-23T04:13:37;17.80;99.90
33255;DHT22;19623;52.482;9.762;2022-08-23T04:16:05;17.80;99.90
33255;DHT22;19623;52.482;9.762;2022-08-23T04:18:31;17.80;99.90
33255;DHT22;19623;52.482;9.762;2022-08-23T04:21:01;17.80;99.90
33255;DHT22;19623;52.482;9.762;2022-08-23T04:23:28;17.70;99.90
33255;DHT22;19623;52.482;9.762;2022-08-23T04:25:54;17.70;99.90
33255;DHT22;19623;52.482;9.762;2022-08-23T04:28:21;17.80;99.90
33255;DHT22;19623;52.482;9.762;2022-08-23T04:30:47;17.80;99.90
33255;DHT22;19623;52.482;9.762;2022-08-23T04:33:13;17.80;99.90
33255;DHT22;19623;52.482;9.762;2022-08-23T04:35:39;17.80;99.90
33255;DHT22;19623;52.482;9.762;2022-08-23T04:38:06;17.80;99.90
33255;DHT22;19623;52.482;9.762;2022-08-23T04:40:31;17.80;99.90
33255;DHT22;19623;52.482;9.762;2022-08-23T04:43:16;17.90;99.90
33255;DHT22;19623;52.482;9.762;2022-08-23T04:45:42;17.90;99.90
33255;DHT22;19623;52.482;9.762;2022-08-23T04:48:07;17.90;99.90
33255;DHT22;19623;52.482;9.762;2022-08-23T04:50:34;17.90;99.90
33255;DHT22;19623;52.482;9.762;2022-08-23T04:53:01;17.90;99.90
33255;DHT22;19623;52.482;9.762;2022-08-23T04:55:27;18.00;99.90
33255;DHT22;19623;52.482;9.762;2022-08-23T04:57:53;18.10;99.90
33255;DHT22;19623;52.482;9.762;2022-08-23T05:00:19;18.20;99.90
33255;DHT22;19623;52.482;9.762;2022-08-23T05:02:44;18.20;99.90
33255;DHT22;19623;52.482;9.762;2022-08-23T05:05:11;18.30;99.90
33255;DHT22;19623;52.482;9.762;2022-08-23T05:07:38;18.30;99.90
33255;DHT22;19623;52.482;9.762;2022-08-23T05:10:06;18.50;99.90
33255;DHT22;19623;52.482;9.762;2022-08-23T05:12:32;18.60;99.90
33255;DHT22;19623;52.482;9.762;2022-08-23T05:14:58;18.60;99.90
33255;DHT22;19623;52.482;9.762;2022-08-23T05:17:23;18.60;99.90
33255;DHT22;19623;52.482;9.762;2022-08-23T05:19:49;18.60;99.90
33255;DHT22;19623;52.482;9.762;2022-08-23T05:22:15;18.60;99.90
33255;DHT22;19623;52.482;9.762;2022-08-23T05:24:40;18.70;99.90
33255;DHT22;19623;52.482;9.762;2022-08-23T05:27:06;18.70;99.90
33255;DHT22;19623;52.482;9.762;2022-08-23T05:29:32;18.70;99.90
33255;DHT22;19623;52.482;9.762;2022-08-23T05:31:57;18.80;99.90
33255;DHT22;19623;52.482;9.762;2022-08-23T05:34:23;18.80;99.90
33255;DHT22;19623;52.482;9.762;2022-08-23T05:36:50;18.80;99.90
33255;DHT22;19623;52.482;9.762;2022-08-23T05:39:15;18.90;99.90
33255;DHT22;19623;52.482;9.762;2022-08-23T05:41:41;18.90;99.90
33255;DHT22;19623;52.482;9.762;2022-08-23T05:44:08;18.90;99.90
33255;DHT22;19623;52.482;9.762;2022-08-23T05:46:35;18.90;99.90
33255;DHT22;19623;52.482;9.762;2022-08-23T05:49:00;18.90;99.90
33255;DHT22;19623;52.482;9.762;2022-08-23T05:51:29;19.00;99.90
33255;DHT22;19623;52.482;9.762;2022-08-23T05:54:00;18.90;99.90
33255;DHT22;19623;52.482;9.762;2022-08-23T05:56:32;18.90;99.90
33255;DHT22;19623;52.482;9.762;2022-08-23T05:59:00;18.90;99.90
33255;DHT22;19623;52.482;9.762;2022-08-23T06:01:28;18.90;99.90
33255;DHT22;19623;52.482;9.762;2022-08-23T06:03:54;19.00;99.90
33255;DHT22;19623;52.482;9.762;2022-08-23T06:06:20;19.00;99.90
33255;DHT22;19623;52.482;9.762;2022-08-23T06:08:46;19.10;99.90
33255;DHT22;19623;52.482;9.762;2022-08-23T06:11:21;19.20;99.90
33255;DHT22;19623;52.482;9.762;2022-08-23T06:13:49;19.20;99.90
33255;DHT22;19623;52.482;9.762;2022-08-23T06:16:17;19.20;99.90
33255;DHT22;19623;52.482;9.762;2022-08-23T06:18:44;19.20;99.90
33255;DHT22;19623;52.482;9.762;2022-08-23T06:21:12;19.30;99.90
33255;DHT22;19623;52.482;9.762;2022-08-23T06:23:38;19.30;99.90
33255;DHT22;19623;52.482;9.762;2022-08-23T06:26:25;19.40;99.90
33255;DHT22;19623;52.482;9.762;2022-08-23T06:28:54;19.50;99.90
33255;DHT22;19623;52.482;9.762;2022-08-23T06:31:22;19.60;99.90
33255;DHT22;19623;52.482;9.762;2022-08-23T06:34:08;19.60;99.90
33255;DHT22;19623;52.482;9.762;2022-08-23T06:36:34;19.70;99.90
33255;DHT22;19623;52.482;9.762;2022-08-23T06:39:03;19.90;99.90
33255;DHT22;19623;52.482;9.762;2022-08-23T06:41:28;20.00;99.90
33255;DHT22;19623;52.482;9.762;2022-08-23T06:43:54;20.00;99.90
33255;DHT22;19623;52.482;9.762;2022-08-23T06:46:23;20.10;99.90
33255;DHT22;19623;52.482;9.762;2022-08-23T06:48:49;20.00;99.90
33255;DHT22;19623;52.482;9.762;2022-08-23T06:51:22;19.80;99.90
33255;DHT22;19623;52.482;9.762;2022-08-23T06:53:48;19.80;99.90
33255;DHT22;19623;52.482;9.762;2022-08-23T06:56:15;19.70;99.90
33255;DHT22;19623;52.482;9.762;2022-08-23T06:58:41;19.60;99.90
33255;DHT22;19623;52.482;9.762;2022-08-23T07:01:30;19.50;99.90
33255;DHT22;19623;52.482;9.762;2022-08-23T07:03:59;19.60;99.90
33255;DHT22;19623;52.482;9.762;2022-08-23T07:06:28;19.80;99.90
33255;DHT22;19623;52.482;9.762;2022-08-23T07:08:54;19.80;99.90
33255;DHT22;19623;52.482;9.762;2022-08-23T07:11:21;20.00;99.90
33255;DHT22;19623;52.482;9.762;2022-08-23T07:13:47;20.10;99.90
33255;DHT22;19623;52.482;9.762;2022-08-23T07:16:15;20.10;99.90
33255;DHT22;19623;52.482;9.762;2022-08-23T07:18:43;20.20;99.90
33255;DHT22;19623;52.482;9.762;2022-08-23T07:21:11;20.20;99.90
33255;DHT22;19623;52.482;9.762;2022-08-23T07:23:38;20.50;99.90
33255;DHT22;19623;52.482;9.762;2022-08-23T07:26:09;20.60;99.90
33255;DHT22;19623;52.482;9.762;2022-08-23T07:28:41;20.80;99.90
33255;DHT22;19623;52.482;9.762;2022-08-23T07:33:39;21.00;99.90
33255;DHT22;19623;52.482;9.762;2022-08-23T07:36:06;21.10;99.90
33255;DHT22;19623;52.482;9.762;2022-08-23T07:38:32;21.20;99.90
33255;DHT22;19623;52.482;9.762;2022-08-23T07:41:00;21.30;99.90
33255;DHT22;19623;52.482;9.762;2022-08-23T07:43:26;21.50;99.90
33255;DHT22;19623;52.482;9.762;2022-08-23T07:45:51;21.60;99.90
33255;DHT22;19623;52.482;9.762;2022-08-23T07:48:17;21.70;99.90
33255;DHT22;19623;52.482;9.762;2022-08-23T07:50:53;21.70;99.90
33255;DHT22;19623;52.482;9.762;2022-08-23T07:53:20;21.90;99.90
33255;DHT22;19623;52.482;9.762;2022-08-23T07:55:45;22.00;99.90
33255;DHT22;19623;52.482;9.762;2022-08-23T07:58:11;22.00;99.90
33255;DHT22;19623;52.482;9.762;2022-08-23T08:00:37;22.20;99.90
33255;DHT22;19623;52.482;9.762;2022-08-23T08:03:03;22.30;99.90
33255;DHT22;19623;52.482;9.762;2022-08-23T08:05:31;22.40;99.90
33255;DHT22;19623;52.482;9.762;2022-08-23T08:07:57;22.50;99.90
33255;DHT22;19623;52.482;9.762;2022-08-23T08:10:23;22.60;99.90
33255;DHT22;19623;52.482;9.762;2022-08-23T08:12:49;22.60;99.90
33255;DHT22;19623;52.482;9.762;2022-08-23T08:15:16;22.80;99.90
33255;DHT22;19623;52.482;9.762;2022-08-23T08:17:42;22.90;99.90
33255;DHT22;19623;52.482;9.762;2022-08-23T08:20:08;22.90;99.90
33255;DHT22;19623;52.482;9.762;2022-08-23T08:22:34;23.00;99.90
33255;DHT22;19623;52.482;9.762;2022-08-23T08:24:59;23.10;99.90
33255;DHT22;19623;52.482;9.762;2022-08-23T08:27:26;23.20;99.90
33255;DHT22;19623;52.482;9.762;2022-08-23T08:29:51;23.30;99.90
33255;DHT22;19623;52.482;9.762;2022-08-23T08:32:17;23.40;99.90
33255;DHT22;19623;52.482;9.762;2022-08-23T08:34:44;23.50;99.90
33255;DHT22;19623;52.482;9.762;2022-08-23T08:37:09;23.50;99.90
33255;DHT22;19623;52.482;9.762;2022-08-23T08:39:35;23.60;99.90
33255;DHT22;19623;52.482;9.762;2022-08-23T08:45:31;23.70;99.90
33255;DHT22;19623;52.482;9.762;2022-08-23T08:48:02;23.80;99.90
33255;DHT22;19623;52.482;9.762;2022-08-23T08:50:49;23.80;99.90
33255;DHT22;19623;52.482;9.762;2022-08-23T08:53:24;23.80;99.90
33255;DHT22;19623;52.482;9.762;2022-08-23T08:55:57;23.80;99.90
33255;DHT22;19623;52.482;9.762;2022-08-23T08:58:40;23.90;99.90
33255;DHT22;19623;52.482;9.762;2022-08-23T09:01:07;24.00;99.90
33255;DHT22;19623;52.482;9.762;2022-08-23T09:03:33;24.10;99.90
33255;DHT22;19623;52.482;9.762;2022-08-23T09:06:18;24.20;99.90
33255;DHT22;19623;52.482;9.762;2022-08-23T09:19:18;24.40;99.90
33255;DHT22;19623;52.482;9.762;2022-08-23T09:21:59;24.40;99.90
33255;DHT22;19623;52.482;9.762;2022-08-23T09:24:26;24.60;99.90
33255;DHT22;19623;52.482;9.762;2022-08-23T09:26:52;24.60;99.90
33255;DHT22;19623;52.482;9.762;2022-08-23T09:29:32;24.60;99.90
33255;DHT22;19623;52.482;9.762;2022-08-23T09:32:00;24.80;99.90
33255;DHT22;19623;52.482;9.762;2022-08-23T09:37:24;25.00;99.90
33255;DHT22;19623;52.482;9.762;2022-08-23T09:42:40;25.20;99.90
33255;DHT22;19623;52.482;9.762;2022-08-23T09:45:26;25.20;99.90
33255;DHT22;19623;52.482;9.762;2022-08-23T09:47:53;25.20;99.90
33255;DHT22;19623;52.482;9.762;2022-08-23T09:53:05;25.30;99.90
33255;DHT22;19623;52.482;9.762;2022-08-23T09:55:48;25.30;99.90
33255;DHT22;19623;52.482;9.762;2022-08-23T09:58:21;25.40;99.90
33255;DHT22;19623;52.482;9.762;2022-08-23T10:01:40;25.60;99.90
33255;DHT22;19623;52.482;9.762;2022-08-23T10:04:07;25.70;99.90
33255;DHT22;19623;52.482;9.762;2022-08-23T10:06:33;25.80;99.90
33255;DHT22;19623;52.482;9.762;2022-08-23T10:08:59;25.90;99.90
33255;DHT22;19623;52.482;9.762;2022-08-23T10:11:33;25.90;99.90
33255;DHT22;19623;52.482;9.762;2022-08-23T10:13:59;26.00;99.90
33255;DHT22;19623;52.482;9.762;2022-08-23T10:16:52;25.90;99.90
33255;DHT22;19623;52.482;9.762;2022-08-23T10:22:20;25.90;99.90
33255;DHT22;19623;52.482;9.762;2022-08-23T10:27:27;26.00;99.90
33255;DHT22;19623;52.482;9.762;2022-08-23T10:30:18;26.10;99.90
33255;DHT22;19623;52.482;9.762;2022-08-23T10:33:00;26.30;99.90
33255;DHT22;19623;52.482;9.762;2022-08-23T10:43:26;26.40;99.90
33255;DHT22;19623;52.482;9.762;2022-08-23T10:45:59;26.40;99.90
33255;DHT22;19623;52.482;9.762;2022-08-23T10:48:35;26.50;99.90
33255;DHT22;19623;52.482;9.762;2022-08-23T10:51:16;26.40;99.90
33255;DHT22;19623;52.482;9.762;2022-08-23T10:56:44;26.40;99.90
33255;DHT22;19623;52.482;9.762;2022-08-23T10:59:13;26.50;99.90
33255;DHT22;19623;52.482;9.762;2022-08-23T11:04:58;26.70;99.90
33255;DHT22;19623;52.482;9.762;2022-08-23T11:07:30;26.80;99.90
33255;DHT22;19623;52.482;9.762;2022-08-23T11:12:31;26.80;99.90
33255;DHT22;19623;52.482;9.762;2022-08-23T11:15:11;26.90;99.90
33255;DHT22;19623;52.482;9.762;2022-08-23T11:26:07;27.10;99.90
33255;DHT22;19623;52.482;9.762;2022-08-23T11:28:44;26.90;99.90
33255;DHT22;19623;52.482;9.762;2022-08-23T11:36:29;26.90;99.90
33255;DHT22;19623;52.482;9.762;2022-08-23T11:39:01;26.90;99.90
33255;DHT22;19623;52.482;9.762;2022-08-23T11:41:31;27.10;99.90
33255;DHT22;19623;52.482;9.762;2022-08-23T11:46:33;27.20;99.90
33255;DHT22;19623;52.482;9.762;2022-08-23T11:49:21;27.10;99.90
33255;DHT22;19623;52.482;9.762;2022-08-23T11:59:38;27.30;99.90
33255;DHT22;19623;52.482;9.762;2022-08-23T12:18:34;27.50;99.90
33255;DHT22;19623;52.482;9.762;2022-08-23T12:21:02;27.50;99.90
33255;DHT22;19623;52.482;9.762;2022-08-23T12:23:28;27.50;99.90
33255;DHT22;19623;52.482;9.762;2022-08-23T12:26:57;27.60;99.90
33255;DHT22;19623;52.482;9.762;2022-08-23T12:29:03;27.70;99.90
33255;DHT22;19623;52.482;9.762;2022-08-23T12:31:39;27.70;99.90
33255;DHT22;19623;52.482;9.762;2022-08-23T12:37:48;27.80;99.90
33255;DHT22;19623;52.482;9.762;2022-08-23T12:40:36;27.90;99.90
33255;DHT22;19623;52.482;9.762;2022-08-23T12:43:10;27.90;99.90
33255;DHT22;19623;52.482;9.762;2022-08-23T12:45:45;28.00;99.90
33255;DHT22;19623;52.482;9.762;2022-08-23T12:48:15;28.00;99.90
33255;DHT22;19623;52.482;9.762;2022-08-23T12:50:43;28.00;99.90
33255;DHT22;19623;52.482;9.762;2022-08-23T12:53:12;28.10;99.90
33255;DHT22;19623;52.482;9.762;2022-08-23T12:55:45;28.10;99.90
33255;DHT22;19623;52.482;9.762;2022-08-23T12:58:13;28.10;99.90
33255;DHT22;19623;52.482;9.762;2022-08-23T13:00:50;28.10;99.90
33255;DHT22;19623;52.482;9.762;2022-08-23T13:03:27;28.10;99.90
33255;DHT22;19623;52.482;9.762;2022-08-23T13:06:09;28.10;99.90
33255;DHT22;19623;52.482;9.762;2022-08-23T13:08:39;28.10;99.90
33255;DHT22;19623;52.482;9.762;2022-08-23T13:11:07;28.10;99.90
33255;DHT22;19623;52.482;9.762;2022-08-23T13:13:37;27.90;99.90
33255;DHT22;19623;52.482;9.762;2022-08-23T13:18:48;27.90;99.90
33255;DHT22;19623;52.482;9.762;2022-08-23T13:21:27;27.80;99.90
33255;DHT22;19623;52.482;9.762;2022-08-23T13:24:39;27.80;99.90
33255;DHT22;19623;52.482;9.762;2022-08-23T13:27:19;28.00;99.90
33255;DHT22;19623;52.482;9.762;2022-08-23T13:32:29;28.00;99.90
33255;DHT22;19623;52.482;9.762;2022-08-23T13:35:35;28.10;99.90
33255;DHT22;19623;52.482;9.762;2022-08-23T13:43:20;28.00;99.90
33255;DHT22;19623;52.482;9.762;2022-08-23T13:45:52;28.10;99.90
33255;DHT22;19623;52.482;9.762;2022-08-23T13:48:24;28.20;99.90
33255;DHT22;19623;52.482;9.762;2022-08-23T13:50:52;28.30;99.90
33255;DHT22;19623;52.482;9.762;2022-08-23T13:53:18;28.30;99.90
33255;DHT22;19623;52.482;9.762;2022-08-23T13:55:51;28.30;99.90
33255;DHT22;19623;52.482;9.762;2022-08-23T13:58:28;28.30;99.90
33255;DHT22;19623;52.482;9.762;2022-08-23T14:00:56;28.20;99.90
33255;DHT22;19623;52.482;9.762;2022-08-23T14:03:22;28.20;99.90
33255;DHT22;19623;52.482;9.762;2022-08-23T14:05:48;28.20;99.90
33255;DHT22;19623;52.482;9.762;2022-08-23T14:08:14;28.20;99.90
33255;DHT22;19623;52.482;9.762;2022-08-23T14:10:40;28.20;99.90
33255;DHT22;19623;52.482;9.762;2022-08-23T14:13:07;28.20;99.90
33255;DHT22;19623;52.482;9.762;2022-08-23T14:15:35;28.30;99.90
33255;DHT22;19623;52.482;9.762;2022-08-23T14:18:02;28.40;99.90
33255;DHT22;19623;52.482;9.762;2022-08-23T14:20:27;28.40;99.90
33255;DHT22;19623;52.482;9.762;2022-08-23T14:22:53;28.40;99.90
33255;DHT22;19623;52.482;9.762;2022-08-23T14:25:19;28.40;99.90
33255;DHT22;19623;52.482;9.762;2022-08-23T14:27:46;28.30;99.90
33255;DHT22;19623;52.482;9.762;2022-08-23T14:30:22;28.20;99.90
33255;DHT22;19623;52.482;9.762;2022-08-23T14:32:49;28.20;99.90
33255;DHT22;19623;52.482;9.762;2022-08-23T14:35:14;28.30;99.90
33255;DHT22;19623;52.482;9.762;2022-08-23T14:37:40;28.30;99.90
33255;DHT22;19623;52.482;9.762;2022-08-23T14:40:06;28.30;99.90
33255;DHT22;19623;52.482;9.762;2022-08-23T14:42:33;28.30;99.90
33255;DHT22;19623;52.482;9.762;2022-08-23T14:44:59;28.40;99.90
33255;DHT22;19623;52.482;9.762;2022-08-23T14:47:24;28.40;99.90
33255;DHT22;19623;52.482;9.762;2022-08-23T14:49:51;28.40;99.90
33255;DHT22;19623;52.482;9.762;2022-08-23T14:52:16;28.30;99.90
33255;DHT22;19623;52.482;9.762;2022-08-23T14:54:42;28.30;99.90
33255;DHT22;19623;52.482;9.762;2022-08-23T14:57:08;28.40;99.90
33255;DHT22;19623;52.482;9.762;2022-08-23T14:59:34;28.50;99.90
33255;DHT22;19623;52.482;9.762;2022-08-23T15:02:03;28.40;99.90
33255;DHT22;19623;52.482;9.762;2022-08-23T15:04:29;28.50;99.90
33255;DHT22;19623;52.482;9.762;2022-08-23T15:06:55;28.40;99.90
33255;DHT22;19623;52.482;9.762;2022-08-23T15:09:22;28.40;99.90
33255;DHT22;19623;52.482;9.762;2022-08-23T15:11:49;28.40;99.90
33255;DHT22;19623;52.482;9.762;2022-08-23T15:14:14;28.40;99.90
33255;DHT22;19623;52.482;9.762;2022-08-23T15:16:40;28.30;99.90
33255;DHT22;19623;52.482;9.762;2022-08-23T15:19:06;28.20;99.90
33255;DHT22;19623;52.482;9.762;2022-08-23T15:21:31;28.20;99.90
33255;DHT22;19623;52.482;9.762;2022-08-23T15:23:57;28.30;99.90
33255;DHT22;19623;52.482;9.762;2022-08-23T15:26:25;28.30;99.90
33255;DHT22;19623;52.482;9.762;2022-08-23T15:28:51;28.40;99.90
33255;DHT22;19623;52.482;9.762;2022-08-23T15:31:18;28.50;99.90
33255;DHT22;19623;52.482;9.762;2022-08-23T15:33:44;28.60;99.90
33255;DHT22;19623;52.482;9.762;2022-08-23T15:36:14;28.60;99.90
33255;DHT22;19623;52.482;9.762;2022-08-23T15:42:18;28.80;99.90
33255;DHT22;19623;52.482;9.762;2022-08-23T15:44:44;28.90;99.90
33255;DHT22;19623;52.482;9.762;2022-08-23T15:47:33;29.00;99.90
33255;DHT22;19623;52.482;9.762;2022-08-23T15:49:59;28.90;99.90
33255;DHT22;19623;52.482;9.762;2022-08-23T15:52:26;28.90;99.90
33255;DHT22;19623;52.482;9.762;2022-08-23T15:54:52;28.90;99.90
33255;DHT22;19623;52.482;9.762;2022-08-23T15:57:25;29.00;99.90
33255;DHT22;19623;52.482;9.762;2022-08-23T15:59:53;29.10;99.90
33255;DHT22;19623;52.482;9.762;2022-08-23T16:02:18;29.20;99.90
33255;DHT22;19623;52.482;9.762;2022-08-23T16:04:44;29.30;99.90
33255;DHT22;19623;52.482;9.762;2022-08-23T16:07:15;29.40;99.90
33255;DHT22;19623;52.482;9.762;2022-08-23T16:09:41;29.50;99.90
33255;DHT22;19623;52.482;9.762;2022-08-23T16:12:07;29.60;99.90
33255;DHT22;19623;52.482;9.762;2022-08-23T16:14:35;29.70;99.90
33255;DHT22;19623;52.482;9.762;2022-08-23T16:17:01;29.70;99.90
33255;DHT22;19623;52.482;9.762;2022-08-23T16:19:27;29.60;99.80
33255;DHT22;19623;52.482;9.762;2022-08-23T16:21:53;29.70;99.90
33255;DHT22;19623;52.482;9.762;2022-08-23T16:24:21;29.80;99.90
33255;DHT22;19623;52.482;9.762;2022-08-23T16:26:47;29.90;99.90
33255;DHT22;19623;52.482;9.762;2022-08-23T16:29:15;29.90;99.90
33255;DHT22;19623;52.482;9.762;2022-08-23T16:31:42;29.90;99.90
33255;DHT22;19623;52.482;9.762;2022-08-23T16:34:11;29.90;99.90
33255;DHT22;19623;52.482;9.762;2022-08-23T16:36:39;29.80;99.90
33255;DHT22;19623;52.482;9.762;2022-08-23T16:39:05;29.70;99.90
33255;DHT22;19623;52.482;9.762;2022-08-23T16:41:31;29.60;99.90
33255;DHT22;19623;52.482;9.762;2022-08-23T16:43:57;29.40;99.90
33255;DHT22;19623;52.482;9.762;2022-08-23T16:46:30;29.20;99.90
33255;DHT22;19623;52.482;9.762;2022-08-23T16:48:58;29.00;99.90
33255;DHT22;19623;52.482;9.762;2022-08-23T16:51:24;28.80;99.90
33255;DHT22;19623;52.482;9.762;2022-08-23T16:53:50;28.60;99.90
33255;DHT22;19623;52.482;9.762;2022-08-23T16:56:16;28.40;99.90
33255;DHT22;19623;52.482;9.762;2022-08-23T16:58:43;28.30;99.90
33255;DHT22;19623;52.482;9.762;2022-08-23T17:01:13;28.20;99.90
33255;DHT22;19623;52.482;9.762;2022-08-23T17:03:40;28.10;99.90
33255;DHT22;19623;52.482;9.762;2022-08-23T17:06:07;28.00;99.90
33255;DHT22;19623;52.482;9.762;2022-08-23T17:08:33;28.00;99.90
33255;DHT22;19623;52.482;9.762;2022-08-23T17:10:59;28.00;99.90
33255;DHT22;19623;52.482;9.762;2022-08-23T17:13:25;27.90;99.90
33255;DHT22;19623;52.482;9.762;2022-08-23T17:15:50;27.90;99.90
33255;DHT22;19623;52.482;9.762;2022-08-23T17:18:16;27.80;99.90
33255;DHT22;19623;52.482;9.762;2022-08-23T17:20:42;27.70;99.90
33255;DHT22;19623;52.482;9.762;2022-08-23T17:23:08;27.70;99.90
33255;DHT22;19623;52.482;9.762;2022-08-23T17:25:36;27.80;99.90
33255;DHT22;19623;52.482;9.762;2022-08-23T17:28:03;28.00;99.90
33255;DHT22;19623;52.482;9.762;2022-08-23T17:30:30;28.10;99.90
33255;DHT22;19623;52.482;9.762;2022-08-23T17:32:56;28.20;99.90
33255;DHT22;19623;52.482;9.762;2022-08-23T17:35:26;28.30;99.90